Time;durP1;ratioP1;P1;durP2;ratioP2;P2;SDS_P1;SDS_P2;PMS_P1;PMS_P2;Temp;Humidity;BMP_temperature;BMP_pressure;BME280_temperature;BME280_humidity;BME280_pressure;Samples;Min_cycle;Max_cycle;Signal;HPM_P1;HPM_P2
2021/01/24 00:01:37;;;;;;;16.32;12.47;;;;;;;7.13;77.73;93106.65;780389;75;32982;-78
2021/01/24 01:31:19;;;;;;;2.10;2.00;;;;;;;8.62;70.77;93152.19;834199;71;32710;-78
2021/01/24 02:46:36;;;;;;;1.80;1.80;;;;;;;8.55;65.73;93103.51;802078;74;33445;-79
2021/01/24 03:01:13;;;;;;;2.00;1.90;;;;;;;8.46;63.76;93103.52;828353;71;33091;-75
2021/01/24 04:46:38;;;;;;;4.25;2.00;;;;;;;8.11;58.32;93141.37;809949;73;32747;-78
2021/01/24 05:16:42;;;;;;;3.10;2.90;;;;;;;7.54;62.83;93172.67;808828;72;32758;-76
2021/01/24 05:31:23;;;;;;;3.87;2.90;;;;;;;7.55;60.52;93163.23;834205;71;32748;-78
2021/01/24 06:02:06;;;;;;;;;;;;;;;;;;;;;
2021/01/24 06:46:46;;;;;;;5.30;4.10;;;;;;;9.25;57.81;93259.11;817371;72;32365;-77
2021/01/24 07:31:13;;;;;;;5.53;4.25;;;;;;;9.16;59.36;93295.19;829613;71;31589;-75
2021/01/24 08:31:10;;;;;;;6.03;4.67;;;;;;;10.72;52.37;93334.45;828829;71;29212;-76
2021/01/24 09:01:30;;;;;;;3.50;3.20;;;;;;;12.92;48.34;93360.02;828042;70;32395;-76
2021/01/24 09:16:36;;;;;;;4.42;3.35;;;;;;;14.37;44.46;93379.48;810252;72;31804;-77
2021/01/24 09:31:12;;;;;;;4.90;3.05;;;;;;;15.24;40.35;93362.48;828303;71;30998;-78
2021/01/24 09:46:10;;;;;;;4.20;3.30;;;;;;;14.32;40.47;93338.08;834996;71;29310;-77
2021/01/24 10:46:15;;;;;;;6.33;5.42;;;;;;;17.21;35.29;93285.77;828042;71;31808;-79
2021/01/24 11:16:12;;;;;;;1.40;1.30;;;;;;;17.73;33.82;93248.30;829463;71;31031;-78
2021/01/24 12:31:36;;;;;;;1.52;1.50;;;;;;;15.86;36.43;93227.74;801256;74;32971;-78
2021/01/24 13:16:37;;;;;;;3.45;1.60;;;;;;;13.13;41.48;93181.34;787597;75;33048;-77
2021/01/24 14:16:36;;;;;;;2.62;2.42;;;;;;;12.00;42.13;93162.19;801452;74;32899;-78
2021/01/24 14:46:39;;;;;;;1.98;1.87;;;;;;;11.37;42.94;93135.38;822213;72;32741;-79
2021/01/24 15:16:55;;;;;;;6.53;2.80;;;;;;;11.22;44.45;93145.41;827887;71;33004;-76
2021/01/24 15:31:38;;;;;;;2.10;1.90;;;;;;;11.09;43.33;93159.61;780215;75;33014;-78
2021/01/24 16:01:40;;;;;;;1.40;1.30;;;;;;;10.94;43.95;93148.39;774728;75;33169;-77
2021/01/24 16:16:38;;;;;;;4.08;2.87;;;;;;;10.91;44.51;93162.93;782618;72;33018;-76
2021/01/24 16:46:38;;;;;;;2.45;2.25;;;;;;;10.82;45.81;93149.87;805606;72;32952;-75
2021/01/24 17:16:23;;;;;;;2.83;2.40;;;;;;;10.67;47.26;93086.76;829101;71;33121;-76
2021/01/24 17:31:37;;;;;;;2.72;2.50;;;;;;;10.68;47.68;93059.42;779853;75;32916;-76
2021/01/24 17:46:49;;;;;;;2.87;2.60;;;;;;;10.68;47.69;93043.68;775278;75;33056;-77
2021/01/24 18:46:23;;;;;;;5.53;4.62;;;;;;;10.56;47.53;92957.86;827450;71;32701;-80
2021/01/24 18:47:29;;;;;;;7.47;5.47;;;;;;;10.52;47.63;92966.16;808713;73;26263;-77
2021/01/24 18:48:33;;;;;;;8.40;6.00;;;;;;;10.57;47.73;92964.65;808635;73;26319;-78
2021/01/24 18:49:38;;;;;;;10.05;6.90;;;;;;;10.65;47.68;92967.72;808708;73;27152;-78
2021/01/24 18:50:43;;;;;;;10.63;7.25;;;;;;;10.75;47.59;92964.68;808573;73;26260;-79
2021/01/24 18:51:47;;;;;;;8.30;6.70;;;;;;;10.87;47.54;92969.18;808651;73;26696;-78
2021/01/24 18:52:51;;;;;;;9.10;7.00;;;;;;;10.98;47.43;92970.82;808555;73;26261;-78
2021/01/24 18:53:55;;;;;;;10.13;7.33;;;;;;;11.07;47.27;92962.30;797890;73;26276;-79
2021/01/24 18:54:58;;;;;;;11.25;7.55;;;;;;;11.16;47.12;92961.63;794751;73;26231;-78
2021/01/24 18:56:02;;;;;;;8.03;6.40;;;;;;;11.26;46.98;92959.67;794549;74;26278;-78
2021/01/24 18:57:06;;;;;;;9.85;7.22;;;;;;;11.34;46.85;92956.92;794680;73;26313;-78
2021/01/24 18:58:10;;;;;;;11.00;6.80;;;;;;;11.40;46.81;92950.34;794632;74;26677;-79
2021/01/24 18:59:14;;;;;;;11.25;7.42;;;;;;;11.48;46.71;92951.33;794581;74;26281;-78
2021/01/24 19:00:18;;;;;;;10.13;7.12;;;;;;;11.54;46.40;92950.00;794467;74;26671;-79
2021/01/24 19:01:22;;;;;;;13.28;7.90;;;;;;;11.59;46.39;92952.39;778048;76;26278;-78
2021/01/24 19:02:25;;;;;;;11.95;8.05;;;;;;;11.63;46.22;92951.94;794775;73;26231;-80
2021/01/24 19:03:29;;;;;;;16.05;9.23;;;;;;;11.69;46.14;92953.03;794466;74;26227;-78
2021/01/24 19:04:33;;;;;;;11.75;9.00;;;;;;;11.71;45.93;92941.64;798586;73;26731;-79
2021/01/24 19:05:37;;;;;;;14.40;9.33;;;;;;;11.74;45.76;92939.66;808856;73;26269;-78
2021/01/24 19:06:42;;;;;;;13.05;10.15;;;;;;;11.75;45.77;92940.64;809034;73;26225;-79
2021/01/24 19:07:47;;;;;;;17.15;11.75;;;;;;;11.77;45.57;92942.94;795058;73;26341;-79
2021/01/24 19:08:50;;;;;;;15.13;10.60;;;;;;;11.79;45.60;92963.84;795083;74;26302;-78
2021/01/24 19:09:54;;;;;;;15.30;10.80;;;;;;;11.77;45.63;92969.22;796102;73;26245;-77
2021/01/24 19:10:58;;;;;;;15.13;11.78;;;;;;;11.76;45.57;92963.20;795589;74;26325;-78
2021/01/24 19:12:01;;;;;;;15.80;11.40;;;;;;;11.78;45.65;92949.19;795030;73;26278;-78
2021/01/24 19:13:06;;;;;;;15.43;11.80;;;;;;;11.81;45.70;92947.75;794655;74;26360;-78
2021/01/24 19:14:10;;;;;;;17.57;11.78;;;;;;;11.83;45.61;92952.13;795264;74;26226;-78
2021/01/24 19:15:13;;;;;;;15.50;11.05;;;;;;;11.84;45.47;92947.09;799595;73;26348;-77
2021/01/24 19:16:17;;;;;;;14.95;10.78;;;;;;;11.84;45.38;92936.59;809971;73;26208;-78
2021/01/24 19:17:22;;;;;;;17.67;11.12;;;;;;;11.84;45.35;92924.76;810201;73;26284;-78
2021/01/24 19:18:26;;;;;;;15.10;11.88;;;;;;;11.84;45.38;92914.25;809949;73;26222;-78
2021/01/24 19:19:29;;;;;;;15.58;11.65;;;;;;;11.81;45.37;92911.72;809471;72;26226;-77
2021/01/24 19:20:33;;;;;;;14.20;10.80;;;;;;;11.82;45.37;92909.88;809159;73;26750;-77
2021/01/24 19:21:37;;;;;;;13.90;10.48;;;;;;;11.80;45.36;92913.36;809240;73;26292;-78
2021/01/24 19:22:42;;;;;;;19.45;12.53;;;;;;;11.79;45.36;92921.04;797593;73;26220;-79
2021/01/24 19:23:46;;;;;;;15.35;11.18;;;;;;;11.79;45.44;92927.05;795991;74;26280;-78
2021/01/24 19:24:50;;;;;;;17.20;10.65;;;;;;;11.71;45.44;92925.33;802344;73;26315;-77
2021/01/24 19:25:54;;;;;;;12.70;10.08;;;;;;;11.63;45.61;92930.17;809741;72;26214;-78
2021/01/24 19:26:58;;;;;;;11.53;8.90;;;;;;;11.59;45.74;92925.36;807735;73;26331;-77
2021/01/24 19:28:03;;;;;;;17.10;13.80;;;;;;;11.55;45.91;92941.02;795112;74;26696;-78
2021/01/24 19:29:08;;;;;;;16.25;10.88;;;;;;;11.52;46.06;92928.56;795071;73;26815;-76
2021/01/24 19:30:13;;;;;;;13.30;9.85;;;;;;;11.49;46.12;92927.89;806572;73;26214;-77
2021/01/24 19:31:17;;;;;;;14.00;10.50;;;;;;;11.47;46.26;92934.58;808776;73;26259;-78
2021/01/24 19:32:20;;;;;;;13.22;9.35;;;;;;;11.46;46.33;92943.57;808422;73;26271;-78
2021/01/24 19:33:24;;;;;;;10.50;8.83;;;;;;;11.43;46.44;92937.88;808700;73;26267;-77
2021/01/24 19:34:30;;;;;;;13.18;9.15;;;;;;;11.40;46.66;92941.72;806978;73;26203;-78
2021/01/24 19:35:34;;;;;;;12.65;9.50;;;;;;;11.41;46.70;92945.33;798916;72;26313;-77
2021/01/24 19:36:38;;;;;;;12.85;9.50;;;;;;;11.39;46.65;92931.77;821765;72;26910;-76
2021/01/24 19:37:41;;;;;;;13.80;9.43;;;;;;;11.39;46.79;92927.83;822161;72;26209;-79
2021/01/24 19:38:45;;;;;;;11.95;9.10;;;;;;;11.37;46.75;92922.66;822214;72;26263;-78
2021/01/24 19:39:49;;;;;;;10.68;8.28;;;;;;;11.30;46.85;92925.09;810401;72;26217;-78
2021/01/24 19:40:52;;;;;;;15.95;9.15;;;;;;;11.22;46.98;92927.50;794164;74;26559;-77
2021/01/24 19:42:01;;;;;;;11.35;9.15;;;;;;;11.15;47.19;92915.49;794638;73;26705;-77
2021/01/24 19:43:06;;;;;;;11.15;8.40;;;;;;;11.09;47.29;92914.70;807978;73;26262;-76
2021/01/24 19:44:12;;;;;;;12.88;8.80;;;;;;;11.04;47.49;92915.70;808129;73;26311;-77
2021/01/24 19:45:16;;;;;;;10.90;9.05;;;;;;;11.03;47.70;92915.50;808679;73;26327;-77
2021/01/24 19:46:19;;;;;;;11.15;9.10;;;;;;;11.02;47.66;92910.02;808640;73;26754;-77
2021/01/24 19:47:24;;;;;;;10.88;9.00;;;;;;;10.99;47.69;92894.95;801007;73;26763;-77
2021/01/24 19:48:29;;;;;;;12.18;8.33;;;;;;;11.00;47.89;92906.41;797288;74;26672;-77
2021/01/24 19:49:33;;;;;;;11.75;9.20;;;;;;;11.00;48.00;92914.28;798913;73;26322;-76
2021/01/24 19:50:36;;;;;;;10.75;8.25;;;;;;;11.02;48.11;92915.27;811545;73;26652;-77
2021/01/24 19:51:40;;;;;;;13.00;9.03;;;;;;;11.02;48.14;92908.70;811635;73;26405;-76
2021/01/24 19:52:44;;;;;;;12.58;8.70;;;;;;;11.04;48.23;92903.89;800510;73;26677;-76
2021/01/24 19:53:49;;;;;;;14.40;9.30;;;;;;;11.05;48.23;92908.06;797530;74;26262;-76
2021/01/24 19:54:53;;;;;;;12.88;9.65;;;;;;;11.05;48.23;92902.81;803171;73;26264;-77
2021/01/24 19:55:57;;;;;;;16.35;9.63;;;;;;;11.08;48.17;92897.45;811454;73;26217;-76
2021/01/24 19:57:00;;;;;;;13.45;9.40;;;;;;;11.09;48.18;92902.38;811053;73;26209;-76
2021/01/24 19:58:09;;;;;;;11.75;9.40;;;;;;;11.08;48.30;92902.70;811281;73;26229;-76
2021/01/24 19:59:13;;;;;;;14.10;9.05;;;;;;;11.07;48.36;92895.90;811241;73;26733;-76
2021/01/24 20:00:16;;;;;;;16.57;9.73;;;;;;;11.06;48.26;92887.27;810904;73;26198;-75
2021/01/24 20:01:21;;;;;;;15.55;10.30;;;;;;;11.07;48.21;92888.81;811230;73;26757;-76
2021/01/24 20:02:25;;;;;;;13.98;10.70;;;;;;;11.04;48.14;92881.58;811130;73;26217;-77
2021/01/24 20:03:29;;;;;;;13.50;10.08;;;;;;;11.02;48.07;92866.16;811757;73;26715;-76
2021/01/24 20:04:33;;;;;;;14.78;10.60;;;;;;;10.99;48.25;92847.16;810869;72;26217;-76
2021/01/24 20:05:38;;;;;;;14.28;10.48;;;;;;;10.98;48.37;92861.36;797470;74;26300;-75
2021/01/24 20:06:41;;;;;;;14.25;10.30;;;;;;;10.98;48.56;92867.91;797392;74;26227;-77
2021/01/24 20:07:47;;;;;;;17.02;10.82;;;;;;;10.97;48.58;92858.53;798000;73;26285;-77
2021/01/24 20:08:52;;;;;;;14.30;10.65;;;;;;;10.98;48.67;92864.53;809587;73;26728;-75
2021/01/24 20:09:56;;;;;;;16.45;10.95;;;;;;;10.99;48.60;92851.64;804798;73;26724;-77
2021/01/24 20:10:59;;;;;;;15.55;11.75;;;;;;;10.98;48.51;92838.29;797150;74;26233;-77
2021/01/24 20:12:03;;;;;;;14.93;10.78;;;;;;;10.98;48.57;92837.73;797332;73;26719;-77
2021/01/24 20:13:08;;;;;;;16.73;11.25;;;;;;;11.00;48.46;92847.36;797165;74;26668;-75
2021/01/24 20:14:12;;;;;;;15.23;11.10;;;;;;;10.99;48.48;92860.83;797286;74;26271;-77
2021/01/24 20:15:16;;;;;;;15.65;11.12;;;;;;;11.00;48.50;92859.72;797318;73;26270;-78
2021/01/24 20:16:20;;;;;;;14.10;10.70;;;;;;;11.01;48.45;92846.83;797054;74;26359;-78
2021/01/24 20:17:24;;;;;;;11.43;9.68;;;;;;;11.01;48.43;92842.89;797383;73;26365;-76
2021/01/24 20:18:28;;;;;;;16.67;10.28;;;;;;;11.03;48.37;92852.52;797095;74;26243;-75
2021/01/24 20:19:32;;;;;;;14.70;11.40;;;;;;;11.03;48.37;92845.95;797200;74;26346;-75
2021/01/24 20:20:37;;;;;;;13.30;10.85;;;;;;;11.01;48.38;92833.16;797153;74;26224;-77
2021/01/24 20:21:41;;;;;;;15.03;11.63;;;;;;;11.03;48.51;92839.39;809994;73;26209;-78
2021/01/24 20:22:45;;;;;;;14.40;10.88;;;;;;;11.03;48.58;92843.33;802617;73;26754;-75
2021/01/24 20:23:49;;;;;;;17.55;11.78;;;;;;;11.04;48.60;92848.78;811447;73;26718;-75
2021/01/24 20:24:53;;;;;;;16.77;12.23;;;;;;;11.05;48.67;92842.45;810109;73;26640;-76
2021/01/24 20:25:57;;;;;;;16.32;12.73;;;;;;;11.04;48.63;92844.84;810178;73;26219;-77
2021/01/24 20:27:01;;;;;;;22.17;13.83;;;;;;;11.02;48.68;92851.72;810232;73;26198;-78
2021/01/24 20:28:05;;;;;;;20.10;14.13;;;;;;;11.03;48.65;92848.58;797468;73;26235;-76
2021/01/24 20:29:09;;;;;;;19.98;14.43;;;;;;;11.04;48.66;92846.16;796607;74;26282;-76
2021/01/24 20:30:15;;;;;;;22.00;13.68;;;;;;;11.06;48.70;92845.27;805845;73;26214;-76
2021/01/24 20:31:19;;;;;;;19.67;13.58;;;;;;;11.07;48.68;92845.51;811404;73;26209;-77
2021/01/24 20:32:23;;;;;;;22.62;14.58;;;;;;;11.08;48.83;92844.95;811513;72;26267;-77
2021/01/24 20:33:28;;;;;;;22.75;14.00;;;;;;;11.09;48.68;92843.31;811414;73;26334;-75
2021/01/24 20:34:32;;;;;;;17.50;13.15;;;;;;;11.09;48.79;92837.28;811418;73;26261;-76
2021/01/24 20:35:35;;;;;;;18.00;13.40;;;;;;;11.08;49.00;92843.08;810987;73;26655;-79
2021/01/24 20:36:39;;;;;;;17.60;14.00;;;;;;;11.09;49.41;92833.34;811507;73;26314;-78
2021/01/24 20:37:43;;;;;;;23.00;14.40;;;;;;;11.09;49.38;92822.31;812316;73;26213;-76
2021/01/24 20:38:46;;;;;;;19.98;14.25;;;;;;;11.09;49.63;92822.31;813199;73;26209;-77
2021/01/24 20:39:51;;;;;;;20.45;14.15;;;;;;;11.09;49.95;92826.78;809999;73;26206;-78
2021/01/24 20:40:56;;;;;;;20.55;14.23;;;;;;;11.10;50.65;92827.01;797560;74;26230;-78
2021/01/24 20:42:01;;;;;;;24.40;15.70;;;;;;;11.09;50.91;92827.56;797256;74;26286;-77
2021/01/24 20:43:05;;;;;;;23.67;17.25;;;;;;;11.09;51.11;92824.94;796653;74;26703;-77
2021/01/24 20:44:10;;;;;;;24.47;17.15;;;;;;;11.10;51.05;92825.14;797539;74;26706;-77
2021/01/24 20:45:14;;;;;;;25.35;17.32;;;;;;;11.09;51.43;92831.50;805179;73;26224;-76
2021/01/24 20:46:18;;;;;;;35.03;21.55;;;;;;;11.10;51.91;92827.01;811395;73;26267;-75
2021/01/24 20:47:21;;;;;;;29.60;19.95;;;;;;;11.11;51.87;92821.96;808881;73;26316;-78
2021/01/24 20:48:25;;;;;;;32.40;20.92;;;;;;;11.10;51.53;92825.14;797371;74;26293;-77
2021/01/24 20:49:29;;;;;;;28.38;20.08;;;;;;;11.10;51.54;92833.02;797519;74;26227;-77
2021/01/24 20:50:37;;;;;;;29.02;20.15;;;;;;;11.09;52.12;92828.09;809674;73;26275;-76
2021/01/24 20:51:41;;;;;;;28.62;18.85;;;;;;;11.09;52.16;92835.44;811554;73;26262;-77
2021/01/24 20:52:45;;;;;;;27.45;18.92;;;;;;;11.09;52.78;92835.97;804041;73;26280;-76
2021/01/24 20:53:49;;;;;;;28.20;21.05;;;;;;;11.09;52.41;92838.06;797243;74;26723;-78
2021/01/24 20:54:52;;;;;;;25.55;18.25;;;;;;;11.10;52.34;92855.33;797528;73;26225;-76
2021/01/24 20:55:56;;;;;;;27.48;19.07;;;;;;;11.09;52.33;92847.25;804194;73;26263;-75
2021/01/24 20:57:06;;;;;;;28.95;19.42;;;;;;;11.10;52.11;92850.63;812505;73;26253;-77
2021/01/24 20:58:10;;;;;;;25.80;18.05;;;;;;;11.09;52.25;92848.56;798019;73;26298;-76
2021/01/24 20:59:15;;;;;;;24.15;18.15;;;;;;;11.08;52.04;92841.02;797121;74;26227;-78
2021/01/24 21:01:59;;;;;;;28.95;20.45;;;;;;;11.16;52.57;92838.81;775395;75;33027;-75
2021/01/24 22:31:37;;;;;;;36.83;23.57;;;;;;;8.33;60.48;92687.09;787421;75;32872;-78
2021/01/24 23:02:00;;;;;;;27.85;18.98;;;;;;;7.93;62.09;92573.89;808882;72;32945;-76
2021/01/24 23:16:38;;;;;;;18.90;13.50;;;;;;;7.73;62.37;92574.64;774477;75;33098;-79
2021/01/24 23:46:19;;;;;;;15.20;10.38;;;;;;;7.77;62.55;92512.34;836658;71;32766;-77
